createdAt,value
2017-11-19T00:02:07.024Z,4.20
2017-11-19T00:04:34.454Z,4.10
2017-11-19T00:07:00.726Z,4.10
2017-11-19T00:09:27.762Z,4.00
2017-11-19T00:11:54.294Z,4.00
2017-11-19T00:14:22.634Z,4.00
2017-11-19T00:16:49.004Z,4.00
2017-11-19T00:19:15.399Z,4.00
2017-11-19T00:21:41.686Z,4.10
2017-11-19T00:24:08.698Z,4.20
2017-11-19T00:26:35.002Z,4.20
2017-11-19T00:29:01.283Z,4.20
2017-11-19T00:31:27.689Z,4.30
2017-11-19T00:33:53.957Z,4.30
2017-11-19T00:36:20.966Z,4.30
2017-11-19T00:38:47.301Z,4.30
2017-11-19T00:41:13.632Z,4.30
2017-11-19T00:43:39.955Z,4.30
2017-11-19T00:46:06.373Z,4.30
2017-11-19T00:48:32.689Z,4.20
2017-11-19T00:50:58.995Z,4.20
2017-11-19T00:53:26.107Z,4.10
2017-11-19T00:55:52.450Z,4.10
2017-11-19T00:58:18.754Z,4.10
2017-11-19T01:00:45.144Z,4.00
2017-11-19T01:03:12.160Z,4.00
2017-11-19T01:05:38.502Z,4.00
2017-11-19T01:08:04.819Z,4.00
2017-11-19T01:10:31.159Z,4.10
2017-11-19T01:12:57.480Z,4.10
2017-11-19T01:15:23.812Z,4.00
2017-11-19T01:17:50.125Z,4.00
2017-11-19T01:20:16.550Z,4.00
2017-11-19T01:22:43.737Z,3.90
2017-11-19T01:25:10.100Z,3.90
2017-11-19T01:27:36.437Z,3.80
2017-11-19T01:30:02.802Z,3.80
2017-11-19T01:32:29.143Z,3.90
2017-11-19T01:34:55.456Z,3.90
2017-11-19T01:37:21.733Z,3.90
2017-11-19T01:39:48.039Z,4.00
2017-11-19T01:42:14.355Z,4.00
2017-11-19T01:44:40.609Z,4.00
2017-11-19T01:47:06.915Z,4.10
2017-11-19T01:49:33.192Z,4.10
2017-11-19T01:52:00.293Z,4.10
2017-11-19T01:54:26.565Z,4.10
2017-11-19T01:56:52.850Z,4.10
2017-11-19T01:59:19.181Z,4.10
2017-11-19T02:01:45.496Z,4.10
2017-11-19T02:04:11.762Z,4.20
2017-11-19T02:06:38.095Z,4.20
2017-11-19T02:09:04.429Z,4.20
2017-11-19T02:11:30.735Z,4.20
2017-11-19T02:13:57.158Z,4.10
2017-11-19T02:16:23.439Z,4.10
2017-11-19T02:18:49.876Z,4.10
2017-11-19T02:21:16.239Z,4.10
2017-11-19T02:23:42.595Z,4.10
2017-11-19T02:26:08.898Z,4.00
2017-11-19T02:28:35.184Z,4.10
2017-11-19T02:31:01.526Z,4.00
2017-11-19T02:33:27.849Z,4.00
2017-11-19T02:35:54.574Z,3.90
2017-11-19T02:38:20.884Z,3.80
2017-11-19T02:40:47.190Z,3.80
2017-11-19T02:43:14.337Z,3.70
2017-11-19T02:45:40.654Z,3.60
2017-11-19T02:48:07.692Z,3.60
2017-11-19T02:50:33.997Z,3.60
2017-11-19T02:53:00.323Z,3.60
2017-11-19T02:55:26.658Z,3.50
2017-11-19T02:57:52.987Z,3.50
2017-11-19T03:00:19.312Z,3.50
2017-11-19T03:02:45.636Z,3.50
2017-11-19T03:05:11.967Z,3.50
2017-11-19T03:07:38.255Z,3.40
2017-11-19T03:10:04.591Z,3.40
2017-11-19T03:12:30.964Z,3.40
2017-11-19T03:14:57.323Z,3.40
2017-11-19T03:17:23.668Z,3.40
2017-11-19T03:19:50.731Z,3.40
2017-11-19T03:22:17.024Z,3.40
2017-11-19T03:24:43.302Z,3.50
2017-11-19T03:27:09.631Z,3.50
2017-11-19T03:29:35.936Z,3.40
2017-11-19T03:32:02.259Z,3.40
2017-11-19T03:34:29.350Z,3.50
2017-11-19T03:36:55.630Z,3.40
2017-11-19T03:39:21.923Z,3.40
2017-11-19T03:41:48.243Z,3.50
2017-11-19T03:44:14.548Z,3.50
2017-11-19T03:46:40.838Z,3.60
2017-11-19T03:49:07.169Z,3.60
2017-11-19T03:51:33.951Z,3.70
2017-11-19T03:54:00.195Z,3.70
2017-11-19T03:56:27.214Z,3.70
2017-11-19T03:58:53.511Z,3.70
2017-11-19T04:01:19.777Z,3.70
2017-11-19T04:03:46.079Z,3.70
2017-11-19T04:06:12.387Z,3.80
2017-11-19T04:08:38.698Z,3.80
2017-11-19T04:11:06.086Z,3.80
2017-11-19T04:13:32.358Z,3.80
2017-11-19T04:15:58.691Z,3.90
2017-11-19T04:18:25.025Z,3.90
2017-11-19T04:20:51.320Z,3.90
2017-11-19T04:23:17.607Z,3.90
2017-11-19T04:25:43.985Z,3.90
2017-11-19T04:28:10.305Z,3.90
2017-11-19T04:30:36.625Z,3.90
2017-11-19T04:33:02.882Z,3.90
2017-11-19T04:35:29.148Z,3.90
2017-11-19T04:37:56.170Z,3.90
2017-11-19T04:40:22.466Z,3.90
2017-11-19T04:42:50.887Z,3.90
2017-11-19T04:45:17.196Z,3.90
2017-11-19T04:47:43.527Z,3.90
2017-11-19T04:50:09.910Z,4.00
2017-11-19T04:52:36.281Z,4.00
2017-11-19T04:55:02.617Z,3.90
2017-11-19T04:57:28.895Z,3.90
2017-11-19T04:59:55.915Z,3.90
2017-11-19T05:02:22.222Z,3.90
2017-11-19T05:04:48.538Z,3.90
2017-11-19T05:07:14.862Z,3.90
2017-11-19T05:09:41.127Z,3.90
2017-11-19T05:12:07.446Z,3.80
2017-11-19T05:14:33.801Z,3.80
2017-11-19T05:17:00.070Z,3.70
2017-11-19T05:19:26.378Z,3.60
2017-11-19T05:21:53.406Z,3.50
2017-11-19T05:24:19.677Z,3.50
2017-11-19T05:26:45.970Z,3.50
2017-11-19T05:29:12.331Z,3.40
2017-11-19T05:31:39.372Z,3.30
2017-11-19T05:34:05.671Z,3.30
2017-11-19T05:36:31.995Z,3.30
2017-11-19T05:38:58.285Z,3.30
2017-11-19T05:41:24.592Z,3.20
2017-11-19T05:43:50.875Z,3.20
2017-11-19T05:46:17.203Z,3.20
2017-11-19T05:48:43.489Z,3.10
2017-11-19T05:51:10.550Z,3.10
2017-11-19T05:53:36.851Z,3.10
2017-11-19T05:56:03.922Z,3.00
2017-11-19T05:58:30.269Z,3.10
2017-11-19T06:00:56.620Z,3.00
2017-11-19T06:03:22.912Z,3.00
2017-11-19T06:05:49.916Z,3.00
2017-11-19T06:08:16.288Z,3.00
2017-11-19T06:10:43.337Z,3.00
2017-11-19T06:13:10.349Z,3.00
2017-11-19T06:15:36.664Z,3.00
2017-11-19T06:18:02.955Z,3.00
2017-11-19T06:20:29.320Z,3.00
2017-11-19T06:22:55.617Z,3.00
2017-11-19T06:25:22.055Z,3.10
2017-11-19T06:27:48.374Z,3.10
2017-11-19T06:30:15.419Z,3.10
2017-11-19T06:32:42.532Z,3.00
2017-11-19T06:35:08.867Z,3.00
2017-11-19T06:37:35.518Z,3.10
2017-11-19T06:40:02.613Z,3.20
2017-11-19T06:42:28.916Z,3.10
2017-11-19T06:44:55.985Z,3.30
2017-11-19T06:47:22.335Z,3.30
2017-11-19T06:49:48.845Z,3.30
2017-11-19T06:52:15.131Z,3.40
2017-11-19T06:54:41.452Z,3.50
2017-11-19T06:57:07.811Z,3.50
2017-11-19T06:59:34.121Z,3.60
2017-11-19T07:02:00.423Z,3.70
2017-11-19T07:04:26.747Z,3.80
2017-11-19T07:06:53.087Z,3.80
2017-11-19T07:09:19.369Z,3.90
2017-11-19T07:11:46.457Z,3.80
2017-11-19T07:14:12.765Z,3.80
2017-11-19T07:16:39.890Z,3.70
2017-11-19T07:19:06.220Z,3.70
2017-11-19T07:21:32.536Z,3.70
2017-11-19T07:23:58.861Z,3.60
2017-11-19T07:26:25.133Z,3.70
2017-11-19T07:28:52.168Z,3.80
2017-11-19T07:31:19.239Z,3.90
2017-11-19T07:33:45.604Z,3.90
2017-11-19T07:36:12.038Z,3.90
2017-11-19T07:38:38.374Z,4.00
2017-11-19T07:41:04.751Z,4.00
2017-11-19T07:43:32.126Z,4.10
2017-11-19T07:45:58.449Z,4.10
2017-11-19T07:48:25.529Z,4.10
2017-11-19T07:50:51.908Z,4.10
2017-11-19T07:53:18.986Z,4.20
2017-11-19T07:55:45.367Z,4.10
2017-11-19T07:58:11.687Z,4.10
2017-11-19T08:00:38.025Z,4.20
2017-11-19T08:03:04.417Z,4.10
2017-11-19T08:05:30.908Z,4.10
2017-11-19T08:07:58.037Z,4.10
2017-11-19T08:10:24.481Z,4.20
2017-11-19T08:12:50.856Z,4.30
2017-11-19T08:15:17.998Z,4.40
2017-11-19T08:17:45.094Z,4.50
2017-11-19T08:20:11.426Z,4.40
2017-11-19T08:22:37.753Z,4.40
2017-11-19T08:25:04.064Z,4.40
2017-11-19T08:27:30.446Z,4.40
2017-11-19T08:29:56.751Z,4.40
2017-11-19T08:32:23.138Z,4.40
2017-11-19T08:34:49.615Z,4.50
2017-11-19T08:37:15.999Z,4.60
2017-11-19T08:39:43.097Z,4.60
2017-11-19T08:42:09.392Z,4.60
2017-11-19T08:44:35.759Z,4.70
2017-11-19T08:47:02.102Z,4.80
2017-11-19T08:49:29.122Z,5.30
2017-11-19T08:51:55.426Z,5.20
2017-11-19T08:54:22.484Z,5.40
2017-11-19T08:56:49.505Z,5.50
2017-11-19T08:59:15.843Z,5.50
2017-11-19T09:01:42.989Z,5.40
2017-11-19T09:04:09.377Z,5.40
2017-11-19T09:06:35.726Z,5.40
2017-11-19T09:09:02.122Z,5.50
2017-11-19T09:11:28.499Z,5.70
2017-11-19T09:13:54.831Z,5.50
2017-11-19T09:16:21.139Z,5.70
2017-11-19T09:18:47.465Z,5.70
2017-11-19T09:21:13.823Z,5.70
2017-11-19T09:23:40.368Z,5.70
2017-11-19T09:26:06.672Z,5.70
2017-11-19T09:28:32.950Z,5.50
2017-11-19T09:31:00.024Z,5.40
2017-11-19T09:33:26.350Z,5.40
2017-11-19T09:35:52.738Z,5.40
2017-11-19T09:38:19.390Z,5.40
2017-11-19T09:40:45.702Z,5.30
2017-11-19T09:43:12.088Z,5.40
2017-11-19T09:45:38.396Z,5.60
2017-11-19T09:48:05.422Z,5.70
2017-11-19T09:50:31.751Z,5.80
2017-11-19T09:52:59.363Z,6.10
2017-11-19T09:55:25.667Z,6.10
2017-11-19T09:57:52.702Z,6.00
2017-11-19T10:00:19.880Z,5.80
2017-11-19T10:02:46.258Z,5.80
2017-11-19T10:05:12.541Z,5.80
2017-11-19T10:07:39.629Z,5.90
2017-11-19T10:10:06.799Z,5.90
2017-11-19T10:12:33.254Z,5.90
2017-11-19T10:14:59.571Z,6.00
2017-11-19T10:17:25.927Z,6.00
2017-11-19T10:19:59.102Z,6.00
2017-11-19T10:22:26.408Z,6.30
2017-11-19T10:24:52.707Z,6.30
2017-11-19T10:27:19.730Z,6.10
2017-11-19T10:29:46.152Z,6.10
2017-11-19T10:32:12.587Z,6.00
2017-11-19T10:34:39.034Z,6.10
2017-11-19T10:37:05.381Z,6.10
2017-11-19T10:39:32.430Z,6.30
2017-11-19T10:41:58.803Z,6.30
2017-11-19T10:44:25.155Z,6.30
2017-11-19T10:46:51.535Z,6.20
2017-11-19T10:49:17.956Z,6.20
2017-11-19T10:51:45.013Z,6.60
2017-11-19T10:54:11.503Z,6.60
2017-11-19T10:56:37.847Z,6.90
2017-11-19T10:59:04.160Z,7.10
2017-11-19T11:01:30.541Z,7.70
2017-11-19T11:03:57.555Z,7.70
2017-11-19T11:06:23.889Z,7.70
2017-11-19T11:08:50.502Z,8.00
2017-11-19T11:11:16.830Z,7.50
2017-11-19T11:13:43.179Z,7.50
2017-11-19T11:16:09.497Z,7.10
2017-11-19T11:18:36.778Z,7.00
2017-11-19T11:21:03.208Z,7.00
2017-11-19T11:23:29.606Z,6.80
2017-11-19T11:25:55.953Z,6.90
2017-11-19T11:28:22.362Z,7.00
2017-11-19T11:30:48.723Z,7.20
2017-11-19T11:33:15.080Z,7.30
2017-11-19T11:35:41.453Z,7.30
2017-11-19T11:38:07.813Z,7.20
2017-11-19T11:40:34.166Z,7.00
2017-11-19T11:43:00.575Z,6.90
2017-11-19T11:45:26.913Z,7.10
2017-11-19T11:47:53.257Z,7.10
2017-11-19T11:50:19.671Z,7.00
2017-11-19T11:52:46.024Z,7.00
2017-11-19T11:55:12.422Z,6.80
2017-11-19T11:57:38.730Z,6.80
2017-11-19T12:00:05.113Z,6.90
2017-11-19T12:02:31.448Z,6.90
2017-11-19T12:04:57.790Z,7.10
2017-11-19T12:07:24.121Z,7.10
2017-11-19T12:09:50.537Z,7.30
2017-11-19T12:12:16.889Z,7.40
2017-11-19T12:14:43.301Z,7.40
2017-11-19T12:17:09.684Z,7.60
2017-11-19T12:19:35.997Z,7.50
2017-11-19T12:22:02.412Z,7.30
2017-11-19T12:24:28.825Z,7.10
2017-11-19T12:26:55.147Z,7.20
2017-11-19T12:29:21.581Z,7.40
2017-11-19T12:31:47.944Z,7.70
2017-11-19T12:34:14.345Z,7.70
2017-11-19T12:36:40.644Z,7.60
2017-11-19T12:39:07.007Z,8.00
2017-11-19T12:41:33.373Z,7.70
2017-11-19T12:43:59.725Z,7.30
2017-11-19T12:46:26.832Z,7.00
2017-11-19T12:48:53.196Z,7.00
2017-11-19T12:51:19.561Z,6.80
2017-11-19T12:53:45.886Z,6.80
2017-11-19T12:56:12.178Z,6.90
2017-11-19T12:58:38.549Z,6.90
2017-11-19T13:01:04.966Z,6.90
2017-11-19T13:03:32.020Z,7.10
2017-11-19T13:05:58.386Z,7.00
2017-11-19T13:08:24.833Z,7.00
2017-11-19T13:10:51.189Z,7.00
2017-11-19T13:13:17.604Z,7.00
2017-11-19T13:15:43.887Z,6.80
2017-11-19T13:18:10.253Z,6.80
2017-11-19T13:20:36.574Z,6.80
2017-11-19T13:23:02.912Z,6.80
2017-11-19T13:25:29.620Z,6.60
2017-11-19T13:27:56.009Z,6.70
2017-11-19T13:30:22.458Z,6.70
2017-11-19T13:32:49.628Z,6.60
2017-11-19T13:35:16.871Z,6.60
2017-11-19T13:37:43.993Z,6.70
2017-11-19T13:40:10.391Z,6.70
2017-11-19T13:42:36.778Z,6.60
2017-11-19T13:45:03.182Z,6.60
2017-11-19T13:47:29.575Z,6.50
2017-11-19T13:49:55.916Z,6.40
2017-11-19T13:52:22.353Z,6.40
2017-11-19T13:54:48.709Z,6.10
2017-11-19T13:57:15.117Z,5.80
2017-11-19T13:59:41.432Z,5.50
2017-11-19T14:02:07.915Z,5.50
2017-11-19T14:04:34.294Z,5.50
2017-11-19T14:07:00.746Z,5.50
2017-11-19T14:09:28.111Z,5.40
2017-11-19T14:11:54.462Z,5.50
2017-11-19T14:14:20.828Z,5.40
2017-11-19T14:16:47.923Z,5.50
2017-11-19T14:19:14.291Z,5.40
2017-11-19T14:21:40.671Z,5.50
2017-11-19T14:24:07.016Z,5.60
2017-11-19T14:26:33.335Z,5.70
2017-11-19T14:28:59.681Z,5.60
2017-11-19T14:31:26.024Z,5.60
2017-11-19T14:33:52.510Z,5.60
2017-11-19T14:36:19.623Z,5.40
2017-11-19T14:38:45.998Z,5.40
2017-11-19T14:41:13.098Z,5.40
2017-11-19T14:43:39.501Z,5.40
2017-11-19T14:46:05.861Z,5.40
2017-11-19T14:48:32.920Z,5.40
2017-11-19T14:51:00.006Z,5.30
2017-11-19T14:53:27.124Z,5.30
2017-11-19T14:55:53.446Z,5.30
2017-11-19T14:58:20.575Z,5.30
2017-11-19T15:00:46.962Z,5.20
2017-11-19T15:03:13.355Z,5.30
2017-11-19T15:05:39.729Z,5.30
2017-11-19T15:08:06.831Z,5.30
2017-11-19T15:10:33.301Z,5.20
2017-11-19T15:12:59.772Z,5.30
2017-11-19T15:15:26.586Z,5.30
2017-11-19T15:17:52.964Z,5.30
2017-11-19T15:20:19.340Z,4.90
2017-11-19T15:22:45.683Z,4.70
2017-11-19T15:25:12.795Z,4.70
2017-11-19T15:27:39.185Z,4.60
2017-11-19T15:30:05.540Z,4.70
2017-11-19T15:32:31.950Z,4.70
2017-11-19T15:34:58.394Z,4.70
2017-11-19T15:37:24.855Z,4.70
2017-11-19T15:39:51.310Z,4.70
2017-11-19T15:42:18.990Z,4.70
2017-11-19T15:44:45.412Z,4.70
2017-11-19T15:47:11.822Z,4.70
2017-11-19T15:49:38.192Z,4.70
2017-11-19T15:52:04.504Z,4.70
2017-11-19T15:54:30.848Z,4.70
2017-11-19T15:56:57.249Z,4.80
2017-11-19T15:59:23.648Z,4.70
2017-11-19T16:01:49.973Z,4.80
2017-11-19T16:04:16.380Z,4.80
2017-11-19T16:06:42.821Z,4.80
2017-11-19T16:09:10.042Z,4.90
2017-11-19T16:11:36.428Z,4.90
2017-11-19T16:14:09.658Z,4.90
2017-11-19T16:16:35.974Z,4.90
2017-11-19T16:19:02.478Z,5.00
2017-11-19T16:21:28.814Z,5.00
2017-11-19T16:23:55.156Z,5.10
2017-11-19T16:26:21.732Z,5.10
2017-11-19T16:28:48.357Z,5.30
2017-11-19T16:31:14.756Z,5.30
2017-11-19T16:33:41.107Z,5.40
2017-11-19T16:36:07.510Z,5.40
2017-11-19T16:38:33.872Z,5.40
2017-11-19T16:41:00.197Z,5.40
2017-11-19T16:43:29.842Z,5.50
2017-11-19T16:45:56.445Z,5.50
2017-11-19T16:48:22.803Z,5.50
2017-11-19T16:50:49.176Z,5.50
2017-11-19T16:53:15.537Z,5.50
2017-11-19T16:55:41.947Z,5.50
2017-11-19T16:58:08.414Z,5.30
2017-11-19T17:00:34.755Z,5.20
2017-11-19T17:03:01.141Z,5.10
2017-11-19T17:05:28.209Z,5.00
2017-11-19T17:07:54.553Z,5.00
2017-11-19T17:10:21.028Z,5.00
2017-11-19T17:12:47.388Z,5.00
2017-11-19T17:15:14.500Z,5.00
2017-11-19T17:17:40.782Z,5.00
2017-11-19T17:20:07.157Z,5.00
2017-11-19T17:22:33.561Z,5.10
2017-11-19T17:24:59.967Z,5.20
2017-11-19T17:27:26.349Z,5.10
2017-11-19T17:29:52.687Z,5.20
2017-11-19T17:32:19.122Z,5.20
2017-11-19T17:34:45.483Z,5.20
2017-11-19T17:37:12.642Z,5.20
2017-11-19T17:39:39.059Z,5.20
2017-11-19T17:42:05.416Z,5.20
2017-11-19T17:44:32.580Z,5.30
2017-11-19T17:46:58.953Z,5.20
2017-11-19T17:49:27.277Z,5.20
2017-11-19T17:51:54.429Z,5.30
2017-11-19T17:54:20.756Z,5.30
2017-11-19T17:56:47.167Z,5.30
2017-11-19T17:59:14.596Z,5.30
2017-11-19T18:01:40.898Z,5.30
2017-11-19T18:04:07.353Z,5.20
2017-11-19T18:06:33.785Z,5.20
2017-11-19T18:09:00.099Z,5.20
2017-11-19T18:11:26.594Z,5.30
2017-11-19T18:13:53.798Z,5.30
2017-11-19T18:16:20.179Z,5.30
2017-11-19T18:18:47.365Z,5.40
2017-11-19T18:21:13.770Z,5.40
2017-11-19T18:23:40.856Z,5.30
2017-11-19T18:26:08.241Z,5.30
2017-11-19T18:28:34.719Z,5.30
2017-11-19T18:31:01.924Z,5.40
2017-11-19T18:33:28.529Z,5.30
2017-11-19T18:35:54.947Z,5.40
2017-11-19T18:38:21.462Z,5.30
2017-11-19T18:40:48.814Z,5.10
2017-11-19T18:43:15.271Z,5.10
2017-11-19T18:45:41.780Z,5.20
2017-11-19T18:48:08.190Z,5.20
2017-11-19T18:50:35.288Z,5.20
2017-11-19T18:53:01.664Z,5.30
2017-11-19T18:55:28.024Z,5.20
2017-11-19T18:57:54.728Z,5.20
2017-11-19T19:00:21.925Z,5.20
2017-11-19T19:02:48.292Z,5.20
2017-11-19T19:05:14.788Z,5.20
2017-11-19T19:07:41.675Z,5.20
2017-11-19T19:10:08.387Z,5.10
2017-11-19T19:12:35.780Z,5.20
2017-11-19T19:15:02.304Z,5.10
2017-11-19T19:17:28.908Z,5.10
2017-11-19T19:19:57.276Z,4.90
2017-11-19T19:22:23.776Z,4.90
2017-11-19T19:24:50.893Z,4.80
2017-11-19T19:27:17.585Z,4.80
2017-11-19T19:29:44.942Z,4.80
2017-11-19T19:32:11.417Z,4.80
2017-11-19T19:34:38.361Z,4.90
2017-11-19T19:37:05.676Z,5.00
2017-11-19T19:39:32.114Z,5.00
2017-11-19T19:41:59.831Z,5.00
2017-11-19T19:44:28.476Z,5.00
2017-11-19T19:46:55.968Z,5.00
2017-11-19T19:49:25.249Z,5.00
2017-11-19T19:51:52.785Z,5.10
2017-11-19T19:54:19.477Z,5.00
2017-11-19T19:56:45.993Z,5.00
2017-11-19T19:59:12.435Z,4.90
2017-11-19T20:01:38.863Z,4.80
2017-11-19T20:04:05.351Z,4.70
2017-11-19T20:06:32.860Z,4.80
2017-11-19T20:08:59.318Z,4.80
2017-11-19T20:11:25.792Z,4.80
2017-11-19T20:13:52.502Z,4.80
2017-11-19T20:16:19.113Z,4.90
2017-11-19T20:18:45.927Z,4.90
2017-11-19T20:21:12.363Z,4.90
2017-11-19T20:23:39.559Z,4.90
2017-11-19T20:26:06.062Z,4.90
2017-11-19T20:28:32.846Z,5.00
2017-11-19T20:30:59.195Z,5.00
2017-11-19T20:33:25.824Z,5.00
2017-11-19T20:35:52.167Z,4.90
2017-11-19T20:38:18.668Z,4.90
2017-11-19T20:40:45.157Z,4.90
2017-11-19T20:43:12.387Z,5.00
2017-11-19T20:45:38.939Z,5.00
2017-11-19T20:48:06.228Z,5.10
2017-11-19T20:50:32.892Z,5.10
2017-11-19T20:52:59.884Z,5.10
2017-11-19T20:55:26.465Z,5.10
2017-11-19T20:57:55.038Z,5.10
2017-11-19T21:00:21.513Z,5.10
2017-11-19T21:02:48.055Z,5.10
2017-11-19T21:05:14.692Z,5.10
2017-11-19T21:07:41.843Z,5.10
2017-11-19T21:10:08.275Z,5.20
2017-11-19T21:12:34.633Z,5.20
2017-11-19T21:15:01.809Z,5.30
2017-11-19T21:17:29.798Z,5.30
2017-11-19T21:19:58.105Z,5.40
2017-11-19T21:22:24.620Z,5.30
2017-11-19T21:24:51.021Z,5.40
2017-11-19T21:27:18.163Z,5.40
2017-11-19T21:29:44.773Z,5.40
2017-11-19T21:32:11.231Z,5.40
2017-11-19T21:34:38.502Z,5.40
2017-11-19T21:37:04.806Z,5.40
2017-11-19T21:39:31.923Z,5.40
2017-11-19T21:41:59.212Z,5.40
2017-11-19T21:44:26.316Z,5.50
2017-11-19T21:46:53.802Z,5.50
2017-11-19T21:49:20.243Z,5.50
2017-11-19T21:51:46.723Z,5.60
2017-11-19T21:54:13.089Z,5.50
2017-11-19T21:56:39.460Z,5.60
2017-11-19T21:59:06.531Z,5.60
2017-11-19T22:01:32.895Z,5.60
2017-11-19T22:03:59.235Z,5.60
2017-11-19T22:06:25.575Z,5.60
2017-11-19T22:08:51.938Z,5.50
2017-11-19T22:11:18.299Z,5.50
2017-11-19T22:13:44.599Z,5.50
2017-11-19T22:16:11.695Z,5.50
2017-11-19T22:18:38.040Z,5.50
2017-11-19T22:21:04.408Z,5.60
2017-11-19T22:23:31.534Z,5.50
2017-11-19T22:25:57.969Z,5.60
2017-11-19T22:28:24.646Z,5.50
2017-11-19T22:30:50.982Z,5.50
2017-11-19T22:33:17.364Z,5.50
2017-11-19T22:35:43.764Z,5.50
2017-11-19T22:38:10.087Z,5.50
2017-11-19T22:40:36.391Z,5.50
2017-11-19T22:43:03.487Z,5.50
2017-11-19T22:45:29.864Z,5.50
2017-11-19T22:47:56.922Z,5.40
2017-11-19T22:50:23.928Z,5.40
2017-11-19T22:52:50.263Z,5.40
2017-11-19T22:55:16.597Z,5.40
2017-11-19T22:57:42.929Z,5.30
2017-11-19T23:00:09.256Z,5.20
2017-11-19T23:02:35.641Z,5.20
2017-11-19T23:05:02.654Z,5.20
2017-11-19T23:07:29.754Z,5.10
2017-11-19T23:09:56.031Z,5.10
2017-11-19T23:12:23.143Z,5.00
2017-11-19T23:14:49.534Z,5.00
2017-11-19T23:17:16.612Z,5.10
2017-11-19T23:19:43.014Z,5.10
2017-11-19T23:22:10.030Z,5.20
2017-11-19T23:24:36.420Z,5.10
2017-11-19T23:27:02.733Z,5.20
2017-11-19T23:29:29.820Z,5.20
2017-11-19T23:31:56.168Z,5.20
2017-11-19T23:34:22.545Z,5.20
2017-11-19T23:36:49.696Z,5.10
2017-11-19T23:39:16.727Z,5.10
2017-11-19T23:41:43.062Z,5.10
2017-11-19T23:44:10.184Z,5.10
2017-11-19T23:46:36.520Z,5.10
2017-11-19T23:49:02.825Z,5.00
2017-11-19T23:51:29.209Z,5.00
2017-11-19T23:53:56.251Z,4.90
2017-11-19T23:56:22.556Z,4.90
2017-11-19T23:58:48.917Z,4.90
